createdAt,value
2022-08-10T00:02:13.954Z,52.69
2022-08-10T00:04:41.317Z,52.32
2022-08-10T00:07:08.602Z,52.31
2022-08-10T00:09:51.171Z,53.10
2022-08-10T00:12:19.830Z,52.97
2022-08-10T00:14:47.593Z,52.46
2022-08-10T00:17:15.024Z,52.53
2022-08-10T00:20:03.609Z,53.06
2022-08-10T00:22:29.655Z,52.96
2022-08-10T00:24:58.074Z,52.45
2022-08-10T00:27:58.656Z,52.70
2022-08-10T00:30:13.910Z,52.12
2022-08-10T00:32:41.244Z,52.10
2022-08-10T00:35:08.970Z,52.19
2022-08-10T00:37:36.258Z,52.47
2022-08-10T00:40:05.309Z,52.60
2022-08-10T00:42:32.924Z,52.00
2022-08-10T00:45:00.318Z,52.56
2022-08-10T00:47:37.450Z,52.54
2022-08-10T00:50:09.578Z,52.92
2022-08-10T00:52:40.937Z,52.76
2022-08-10T00:55:08.658Z,51.76
2022-08-10T00:57:36.424Z,51.52
2022-08-10T01:00:06.111Z,51.17
2022-08-10T01:02:34.354Z,51.17
2022-08-10T01:05:06.650Z,50.75
2022-08-10T01:07:51.433Z,51.72
2022-08-10T01:10:56.254Z,50.80
2022-08-10T01:13:41.652Z,51.53
2022-08-10T01:16:29.681Z,52.45
2022-08-10T01:19:11.936Z,52.66
2022-08-10T01:21:58.602Z,52.08
2022-08-10T01:24:40.511Z,52.44
2022-08-10T01:27:26.923Z,52.63
2022-08-10T01:29:57.495Z,52.49
2022-08-10T01:32:41.455Z,51.96
2022-08-10T01:35:34.146Z,52.17
2022-08-10T01:38:07.345Z,52.33
2022-08-10T01:40:39.176Z,51.94
2022-08-10T01:43:10.139Z,52.48
2022-08-10T01:45:46.347Z,52.15
2022-08-10T01:48:29.799Z,52.22
2022-08-10T01:51:15.583Z,52.29
2022-08-10T01:53:52.135Z,52.00
2022-08-10T01:56:23.279Z,51.42
2022-08-10T01:58:56.876Z,51.44
2022-08-10T02:01:29.048Z,50.06
2022-08-10T02:04:03.830Z,50.07
2022-08-10T02:06:37.701Z,49.97
2022-08-10T02:09:07.833Z,49.89
2022-08-10T02:12:06.036Z,50.14
2022-08-10T02:14:34.070Z,50.31
2022-08-10T02:17:57.965Z,51.05
2022-08-10T02:20:02.673Z,51.56
2022-08-10T02:22:35.616Z,50.82
2022-08-10T02:25:41.067Z,51.58
2022-08-10T02:28:07.794Z,51.38
2022-08-10T02:30:37.671Z,50.94
2022-08-10T02:33:06.236Z,50.01
2022-08-10T02:35:55.454Z,50.88
2022-08-10T02:38:58.712Z,50.63
2022-08-10T02:45:13.002Z,51.30
2022-08-10T02:45:22.065Z,49.64
2022-08-10T02:47:51.479Z,49.12
2022-08-10T02:50:32.811Z,50.72
2022-08-10T02:53:06.202Z,51.23
2022-08-10T02:55:47.262Z,51.40
2022-08-10T02:58:21.032Z,51.52
2022-08-10T03:00:52.612Z,51.31
2022-08-10T03:03:31.385Z,50.30
2022-08-10T03:06:08.589Z,50.20
2022-08-10T03:08:41.580Z,49.95
2022-08-10T03:11:14.288Z,50.84
2022-08-10T03:13:43.679Z,50.82
2022-08-10T03:16:12.399Z,50.20
2022-08-10T03:18:40.222Z,50.27
2022-08-10T03:21:11.796Z,49.03
2022-08-10T03:23:42.000Z,49.15
2022-08-10T03:26:10.298Z,49.79
2022-08-10T03:28:38.238Z,49.84
2022-08-10T03:31:05.832Z,49.87
2022-08-10T03:33:35.945Z,48.97
2022-08-10T03:36:44.039Z,49.07
2022-08-10T03:38:54.557Z,47.69
2022-08-10T03:41:53.348Z,47.61
2022-08-10T03:44:31.612Z,48.43
2022-08-10T03:47:03.159Z,48.16
2022-08-10T03:49:43.830Z,49.26
2022-08-10T03:52:11.468Z,49.75
2022-08-10T03:54:39.125Z,49.73
2022-08-10T03:57:06.819Z,49.52
2022-08-10T03:59:36.295Z,49.74
2022-08-10T04:02:44.422Z,49.55
2022-08-10T04:04:53.875Z,50.42
2022-08-10T04:07:21.802Z,50.29
2022-08-10T04:09:55.006Z,50.47
2022-08-10T04:12:24.936Z,50.88
2022-08-10T04:14:53.560Z,51.61
2022-08-10T04:18:03.772Z,52.51
2022-08-10T04:20:41.516Z,53.33
2022-08-10T04:23:12.992Z,53.66
2022-08-10T04:25:41.237Z,52.51
2022-08-10T04:28:09.719Z,49.34
2022-08-10T04:30:38.810Z,49.26
2022-08-10T04:33:08.614Z,49.10
2022-08-10T04:35:37.848Z,49.38
2022-08-10T04:38:06.270Z,50.13
2022-08-10T04:40:33.750Z,50.70
2022-08-10T04:43:12.642Z,50.71
2022-08-10T04:45:47.319Z,50.08
2022-08-10T04:48:42.056Z,49.69
2022-08-10T04:51:06.806Z,49.97
2022-08-10T04:54:04.631Z,49.34
2022-08-10T04:56:31.778Z,49.90
2022-08-10T04:59:00.885Z,48.46
2022-08-10T05:02:12.168Z,49.03
2022-08-10T05:04:34.789Z,49.14
2022-08-10T05:07:10.504Z,48.85
2022-08-10T05:10:02.358Z,49.70
2022-08-10T05:12:29.531Z,47.43
2022-08-10T05:14:56.945Z,46.86
2022-08-10T05:17:24.862Z,47.87
2022-08-10T05:20:03.757Z,48.50
2022-08-10T05:22:39.461Z,48.37
2022-08-10T05:25:12.751Z,48.02
2022-08-10T05:27:40.990Z,48.52
2022-08-10T05:30:10.533Z,48.37
2022-08-10T05:32:56.253Z,47.75
2022-08-10T05:35:26.182Z,48.32
2022-08-10T05:38:09.461Z,47.77
2022-08-10T05:40:46.693Z,47.83
2022-08-10T05:43:21.158Z,47.32
2022-08-10T05:46:18.284Z,47.74
2022-08-10T05:48:42.083Z,47.46
2022-08-10T05:51:26.741Z,47.16
2022-08-10T05:54:03.408Z,47.07
2022-08-10T05:56:53.850Z,46.27
2022-08-10T06:00:09.894Z,45.60
2022-08-10T06:02:33.115Z,45.85
2022-08-10T06:05:07.254Z,45.08
2022-08-10T06:07:39.180Z,44.47
2022-08-10T06:10:10.202Z,43.61
2022-08-10T06:12:54.835Z,44.51
2022-08-10T06:15:51.691Z,44.36
2022-08-10T06:18:19.201Z,45.09
2022-08-10T06:20:47.620Z,45.10
2022-08-10T06:23:15.155Z,44.83
2022-08-10T06:26:11.889Z,43.87
2022-08-10T06:28:34.193Z,44.06
2022-08-10T06:31:03.453Z,44.10
2022-08-10T06:33:34.173Z,44.44
2022-08-10T06:36:03.765Z,44.44
2022-08-10T06:38:34.161Z,44.05
2022-08-10T06:41:06.561Z,44.50
2022-08-10T06:43:35.987Z,44.01
2022-08-10T06:46:09.360Z,43.85
2022-08-10T06:48:46.548Z,43.04
2022-08-10T06:51:18.218Z,41.59
2022-08-10T06:53:53.825Z,40.33
2022-08-10T06:56:36.175Z,39.77
2022-08-10T06:59:21.266Z,41.10
2022-08-10T07:01:54.003Z,39.68
2022-08-10T07:04:44.680Z,40.09
2022-08-10T07:07:18.872Z,37.80
2022-08-10T07:09:48.386Z,38.61
2022-08-10T07:12:16.532Z,40.61
2022-08-10T07:14:47.057Z,41.71
2022-08-10T07:17:17.890Z,40.21
2022-08-10T07:19:50.247Z,42.15
2022-08-10T07:23:01.619Z,41.02
2022-08-10T07:25:13.474Z,41.19
2022-08-10T07:27:59.525Z,38.64
2022-08-10T07:30:31.869Z,39.00
2022-08-10T07:33:01.929Z,38.50
2022-08-10T07:35:41.912Z,38.87
2022-08-10T07:38:24.119Z,38.42
2022-08-10T07:40:53.534Z,38.57
2022-08-10T07:43:24.476Z,38.05
2022-08-10T07:45:52.025Z,36.04
2022-08-10T07:48:31.776Z,36.82
2022-08-10T07:51:02.109Z,35.86
2022-08-10T07:53:34.323Z,35.83
2022-08-10T07:56:20.984Z,36.77
2022-08-10T07:58:57.878Z,37.11
2022-08-10T08:01:33.079Z,37.63
2022-08-10T08:04:10.599Z,37.14
2022-08-10T08:06:42.779Z,37.59
2022-08-10T08:09:11.537Z,37.07
2022-08-10T08:11:42.074Z,37.11
2022-08-10T08:14:12.222Z,37.94
2022-08-10T08:16:43.978Z,37.26
2022-08-10T08:19:37.708Z,37.93
2022-08-10T08:24:07.805Z,35.60
2022-08-10T08:24:52.496Z,36.18
2022-08-10T08:27:20.532Z,37.02
2022-08-10T08:29:49.997Z,36.94
2022-08-10T08:32:22.388Z,36.16
2022-08-10T08:34:54.648Z,36.21
2022-08-10T08:38:29.706Z,34.96
2022-08-10T08:40:16.772Z,34.63
2022-08-10T08:43:03.379Z,34.24
2022-08-10T08:46:01.549Z,35.26
2022-08-10T08:48:51.391Z,35.82
2022-08-10T08:52:09.324Z,35.51
2022-08-10T08:54:55.479Z,35.47
2022-08-10T08:57:55.780Z,34.92
2022-08-10T09:00:29.075Z,35.02
2022-08-10T09:03:05.395Z,34.81
2022-08-10T09:05:58.681Z,35.86
2022-08-10T09:09:05.211Z,36.88
2022-08-10T09:12:06.590Z,35.16
2022-08-10T09:14:54.868Z,35.75
2022-08-10T09:17:33.199Z,35.22
2022-08-10T09:20:10.404Z,33.23
2022-08-10T09:22:57.249Z,34.59
2022-08-10T09:25:32.972Z,34.73
2022-08-10T09:28:17.229Z,34.80
2022-08-10T09:31:18.668Z,34.71
2022-08-10T09:36:24.250Z,34.81
2022-08-10T09:36:51.778Z,34.21
2022-08-10T09:40:06.937Z,35.44
2022-08-10T09:43:25.670Z,34.54
2022-08-10T09:45:57.386Z,34.84
2022-08-10T09:48:46.248Z,35.09
2022-08-10T09:51:46.633Z,35.62
2022-08-10T09:54:36.664Z,35.63
2022-08-10T09:57:44.906Z,35.96
2022-08-10T10:00:17.114Z,36.30
2022-08-10T10:03:04.325Z,36.43
2022-08-10T10:05:51.865Z,35.21
2022-08-10T10:08:25.752Z,35.59
2022-08-10T10:11:17.302Z,35.48
2022-08-10T10:14:03.698Z,34.21
2022-08-10T10:17:01.452Z,33.88
2022-08-10T10:20:08.022Z,33.39
2022-08-10T10:23:03.149Z,34.49
2022-08-10T10:25:50.303Z,34.68
2022-08-10T10:32:10.144Z,36.42
2022-08-10T10:35:21.613Z,35.27
2022-08-10T10:38:01.128Z,37.14
2022-08-10T10:40:42.496Z,36.08
2022-08-10T10:43:48.751Z,36.65
2022-08-10T10:46:57.214Z,36.83
2022-08-10T10:49:42.852Z,37.64
2022-08-10T10:52:37.909Z,36.10
2022-08-10T10:55:23.713Z,38.32
2022-08-10T10:58:12.060Z,39.16
2022-08-10T11:01:03.166Z,37.33
2022-08-10T11:03:49.112Z,35.91
2022-08-10T11:38:30.168Z,47.97
2022-08-10T11:42:09.983Z,49.11
2022-08-10T11:44:09.591Z,49.74
2022-08-10T11:46:46.991Z,48.87
2022-08-10T11:49:24.498Z,49.38
2022-08-10T11:52:05.037Z,49.93
2022-08-10T11:54:50.944Z,49.24
2022-08-10T11:57:19.722Z,49.46
2022-08-10T11:59:59.146Z,48.40
2022-08-10T12:02:50.341Z,46.82
2022-08-10T12:05:52.580Z,44.64
2022-08-10T12:10:07.221Z,44.29
2022-08-10T12:11:09.474Z,45.45
2022-08-10T12:14:10.657Z,45.93
2022-08-10T12:16:43.132Z,45.33
2022-08-10T12:19:21.262Z,43.14
2022-08-10T12:21:56.830Z,44.11
2022-08-10T12:24:38.210Z,43.16
2022-08-10T12:27:16.745Z,41.78
2022-08-10T12:29:50.574Z,40.93
2022-08-10T12:32:51.941Z,38.62
2022-08-10T12:36:01.718Z,39.23
2022-08-10T12:38:47.067Z,38.37
2022-08-10T12:41:43.951Z,36.13
2022-08-10T12:44:41.659Z,37.20
2022-08-10T12:47:39.413Z,36.30
2022-08-10T12:50:42.895Z,35.48
2022-08-10T12:53:41.439Z,34.23
2022-08-10T12:56:08.938Z,31.64
2022-08-10T12:58:59.482Z,32.03
2022-08-10T13:02:09.462Z,30.71
2022-08-10T13:04:36.160Z,30.02
2022-08-10T13:07:06.338Z,30.70
2022-08-10T13:09:34.615Z,29.76
2022-08-10T13:12:36.638Z,30.11
2022-08-10T13:15:45.919Z,28.60
2022-08-10T13:18:18.634Z,30.44
2022-08-10T13:20:55.373Z,30.07
2022-08-10T13:23:29.686Z,30.17
2022-08-10T13:25:59.910Z,29.23
2022-08-10T13:28:45.896Z,29.85
2022-08-10T13:31:18.319Z,30.19
2022-08-10T13:34:41.190Z,29.30
2022-08-10T13:36:42.042Z,30.00
2022-08-10T13:39:10.986Z,28.75
2022-08-10T13:41:42.990Z,28.20
2022-08-10T13:44:13.383Z,28.42
2022-08-10T13:46:48.286Z,29.04
2022-08-10T13:49:21.734Z,29.55
2022-08-10T13:51:57.393Z,29.01
2022-08-10T13:54:29.561Z,27.24
2022-08-10T13:56:58.382Z,28.17
2022-08-10T14:00:37.525Z,26.79
2022-08-10T14:02:25.074Z,28.53
2022-08-10T14:04:55.260Z,27.97
2022-08-10T14:07:24.260Z,28.75
2022-08-10T14:09:53.717Z,28.29
2022-08-10T14:12:32.264Z,28.12
2022-08-10T14:15:04.994Z,30.08
2022-08-10T14:17:34.310Z,30.99
2022-08-10T14:20:13.339Z,31.30
2022-08-10T14:22:42.405Z,31.49
2022-08-10T14:25:31.554Z,31.94
2022-08-10T14:28:02.534Z,32.34
2022-08-10T14:30:33.536Z,33.16
2022-08-10T14:33:04.833Z,32.35
2022-08-10T14:36:21.178Z,33.12
2022-08-10T14:38:31.107Z,33.06
2022-08-10T14:41:04.623Z,32.77
2022-08-10T14:43:39.871Z,33.33
2022-08-10T14:46:20.263Z,32.80
2022-08-10T14:48:52.297Z,32.77
2022-08-10T14:51:28.252Z,33.45
2022-08-10T14:54:15.918Z,33.94
2022-08-10T14:56:49.077Z,34.37
2022-08-10T14:59:18.611Z,34.40
2022-08-10T15:02:00.668Z,35.67
2022-08-10T15:04:38.059Z,35.40
2022-08-10T15:07:29.727Z,35.57
2022-08-10T15:10:00.765Z,34.93
2022-08-10T15:12:36.063Z,35.68
2022-08-10T15:15:06.629Z,35.39
2022-08-10T15:17:38.092Z,35.71
2022-08-10T15:20:20.625Z,35.65
2022-08-10T15:22:55.616Z,35.24
2022-08-10T15:25:26.372Z,36.16
2022-08-10T15:28:06.411Z,36.42
2022-08-10T15:30:42.587Z,36.88
2022-08-10T15:34:04.429Z,37.01
2022-08-10T15:37:36.979Z,37.80
2022-08-10T15:40:24.051Z,37.05
2022-08-10T15:42:49.159Z,37.45
2022-08-10T15:45:18.029Z,38.32
2022-08-10T15:48:01.873Z,38.05
2022-08-10T15:50:44.250Z,38.57
2022-08-10T15:53:15.896Z,39.29
2022-08-10T15:55:46.338Z,39.91
2022-08-10T15:58:39.460Z,39.86
2022-08-10T16:02:12.777Z,40.15
2022-08-10T16:04:09.101Z,40.32
2022-08-10T16:06:42.807Z,40.55
2022-08-10T16:10:23.981Z,41.00
2022-08-10T16:12:14.345Z,41.59
2022-08-10T16:14:48.014Z,42.24
2022-08-10T16:17:16.853Z,42.36
2022-08-10T16:20:04.652Z,42.49
2022-08-10T16:22:37.138Z,42.00
2022-08-10T16:25:14.652Z,42.60
2022-08-10T16:27:44.562Z,42.87
2022-08-10T16:30:12.971Z,42.64
2022-08-10T16:32:41.679Z,43.55
2022-08-10T16:35:15.996Z,43.23
2022-08-10T16:37:58.736Z,44.32
2022-08-10T16:40:29.548Z,43.88
2022-08-10T16:42:59.252Z,45.13
2022-08-10T16:45:40.341Z,44.58
2022-08-10T16:48:09.722Z,45.10
2022-08-10T16:50:45.378Z,45.18
2022-08-10T16:53:18.930Z,45.68
2022-08-10T16:55:57.600Z,46.50
2022-08-10T16:58:34.431Z,46.60
2022-08-10T17:01:11.073Z,47.12
2022-08-10T17:04:07.282Z,47.26
2022-08-10T17:06:55.834Z,47.03
2022-08-10T17:09:27.961Z,47.66
2022-08-10T17:11:58.278Z,48.19
2022-08-10T17:14:28.931Z,48.73
2022-08-10T17:17:08.679Z,48.64
2022-08-10T17:19:40.805Z,48.14
2022-08-10T17:22:14.492Z,49.26
2022-08-10T17:24:52.808Z,49.38
2022-08-10T17:28:04.669Z,49.83
2022-08-10T17:30:15.895Z,50.37
2022-08-10T17:32:59.540Z,50.09
2022-08-10T17:35:36.705Z,50.52
2022-08-10T17:38:26.450Z,50.86
2022-08-10T17:41:03.750Z,51.10
2022-08-10T17:44:01.346Z,52.10
2022-08-10T17:46:26.093Z,52.45
2022-08-10T17:48:55.416Z,53.75
2022-08-10T17:51:28.675Z,53.89
2022-08-10T17:54:00.195Z,54.70
2022-08-10T17:56:31.862Z,53.27
2022-08-10T17:59:02.921Z,51.97
2022-08-10T18:01:40.919Z,51.93
2022-08-10T18:04:25.616Z,51.04
2022-08-10T18:06:55.195Z,51.20
2022-08-10T18:09:54.456Z,49.41
2022-08-10T18:12:38.650Z,48.62
2022-08-10T18:15:13.368Z,50.66
2022-08-10T18:17:45.311Z,51.89
2022-08-10T18:20:14.888Z,51.43
2022-08-10T18:22:48.563Z,51.15
2022-08-10T18:25:33.956Z,51.61
2022-08-10T18:28:05.108Z,52.12
2022-08-10T18:30:36.647Z,53.09
2022-08-10T18:33:09.056Z,52.65
2022-08-10T18:35:39.161Z,52.22
2022-08-10T18:38:08.177Z,51.77
2022-08-10T18:40:38.515Z,52.44
2022-08-10T18:44:05.051Z,52.20
2022-08-10T18:46:02.684Z,51.68
2022-08-10T18:48:42.730Z,52.20
2022-08-10T18:51:12.650Z,52.33
2022-08-10T18:53:51.555Z,53.29
2022-08-10T18:56:24.373Z,55.27
2022-08-10T18:59:07.860Z,56.63
2022-08-10T19:02:05.818Z,57.54
2022-08-10T19:04:51.855Z,55.87
2022-08-10T19:07:44.380Z,54.46
2022-08-10T19:10:17.711Z,55.02
2022-08-10T19:12:47.733Z,53.66
2022-08-10T19:15:37.761Z,54.17
2022-08-10T19:18:20.899Z,54.24
2022-08-10T19:21:16.190Z,54.03
2022-08-10T19:23:58.713Z,53.49
2022-08-10T19:26:47.961Z,55.32
2022-08-10T19:30:00.939Z,54.63
2022-08-10T19:32:44.800Z,53.68
2022-08-10T19:36:04.459Z,53.80
2022-08-10T19:38:55.434Z,54.94
2022-08-10T19:41:44.225Z,55.02
2022-08-10T19:44:30.899Z,55.07
2022-08-10T19:47:07.404Z,57.33
2022-08-10T19:49:43.900Z,56.85
2022-08-10T19:52:59.783Z,55.72
2022-08-10T19:55:31.791Z,56.03
2022-08-10T19:58:06.300Z,55.02
2022-08-10T20:01:06.908Z,57.55
2022-08-10T20:03:56.202Z,58.04
2022-08-10T20:06:28.559Z,58.40
2022-08-10T20:10:59.134Z,58.49
2022-08-10T20:13:43.537Z,59.19
2022-08-10T20:16:19.261Z,58.50
2022-08-10T20:19:14.775Z,57.96
2022-08-10T20:21:56.974Z,58.17
2022-08-10T20:24:49.257Z,57.53
2022-08-10T20:27:59.251Z,58.86
2022-08-10T20:30:27.912Z,60.28
2022-08-10T20:33:09.310Z,59.74
2022-08-10T20:36:05.960Z,58.94
2022-08-10T20:38:34.835Z,60.60
2022-08-10T20:41:11.274Z,60.83
2022-08-10T20:43:47.831Z,60.61
2022-08-10T20:46:36.251Z,61.53
2022-08-10T20:49:44.513Z,62.04
2022-08-10T20:52:13.835Z,62.00
2022-08-10T20:54:47.720Z,62.58
2022-08-10T20:57:55.647Z,62.04
2022-08-10T21:00:23.043Z,61.91
2022-08-10T21:03:51.591Z,62.01
2022-08-10T21:06:43.392Z,62.96
2022-08-10T21:09:23.428Z,62.63
2022-08-10T21:11:53.661Z,63.09
2022-08-10T21:14:35.636Z,63.83
2022-08-10T21:17:16.856Z,64.11
2022-08-10T21:20:09.581Z,64.70
2022-08-10T21:22:44.996Z,64.99
2022-08-10T21:25:20.064Z,65.50
2022-08-10T21:28:09.731Z,67.02
2022-08-10T21:30:45.348Z,66.02
2022-08-10T21:33:33.358Z,66.47
2022-08-10T21:36:25.224Z,67.39
2022-08-10T21:39:13.365Z,66.60
2022-08-10T21:45:59.795Z,67.36
2022-08-10T21:48:57.694Z,66.44
2022-08-10T21:52:01.943Z,65.86
2022-08-10T21:55:09.637Z,65.12
2022-08-10T21:58:16.887Z,65.58
2022-08-10T22:01:18.051Z,65.88
2022-08-10T22:04:04.905Z,66.88
2022-08-10T22:06:55.784Z,66.30
2022-08-10T22:09:50.818Z,66.92
2022-08-10T22:12:39.654Z,65.01
2022-08-10T22:16:03.287Z,63.84
2022-08-10T22:18:53.891Z,64.52
2022-08-10T22:21:59.980Z,64.94
2022-08-10T22:25:16.802Z,65.53
2022-08-10T22:28:03.684Z,64.99
2022-08-10T22:31:24.380Z,65.38
2022-08-10T22:31:25.113Z,66.70
2022-08-10T22:34:33.125Z,66.04
2022-08-10T22:37:36.997Z,65.99
2022-08-10T22:40:36.927Z,66.21
2022-08-10T22:43:35.414Z,66.16
2022-08-10T22:46:31.488Z,66.34
2022-08-10T22:49:02.082Z,65.79
2022-08-10T22:51:47.521Z,66.11
2022-08-10T22:54:42.457Z,66.64
2022-08-10T22:57:35.646Z,66.96
2022-08-10T23:00:28.729Z,67.01
2022-08-10T23:03:07.664Z,66.94
2022-08-10T23:05:41.629Z,66.71
2022-08-10T23:08:29.985Z,67.42
2022-08-10T23:11:03.728Z,66.84
2022-08-10T23:13:36.863Z,66.33
2022-08-10T23:16:43.579Z,69.61
2022-08-10T23:19:27.644Z,72.04
2022-08-10T23:22:11.576Z,73.31
2022-08-10T23:24:45.257Z,74.89
2022-08-10T23:27:38.502Z,74.55
2022-08-10T23:30:10.458Z,74.81
2022-08-10T23:32:48.183Z,75.71
2022-08-10T23:36:30.314Z,75.99
2022-08-10T23:38:07.917Z,75.81
2022-08-10T23:40:36.446Z,75.57
2022-08-10T23:43:06.545Z,76.90
2022-08-10T23:45:53.261Z,77.71
2022-08-10T23:48:29.709Z,78.41
2022-08-10T23:51:01.298Z,76.45
2022-08-10T23:53:32.435Z,76.76
2022-08-10T23:56:08.551Z,76.63
2022-08-10T23:58:40.653Z,76.07
